sensor_id;sensor_type;location;lat;lon;timestamp;P1;durP1;ratioP1;P2;durP2;ratioP2
17987;SDS011;9119;50.932;5.342;2022-08-19T00:02:04;33.03;;;23.37;;
17987;SDS011;9119;50.932;5.342;2022-08-19T00:04:31;45.30;;;24.70;;
17987;SDS011;9119;50.932;5.342;2022-08-19T00:07:01;36.90;;;26.17;;
17987;SDS011;9119;50.932;5.342;2022-08-19T00:09:28;36.13;;;26.53;;
17987;SDS011;9119;50.932;5.342;2022-08-19T00:11:54;39.93;;;27.80;;
17987;SDS011;9119;50.932;5.342;2022-08-19T00:14:21;35.03;;;24.33;;
17987;SDS011;9119;50.932;5.342;2022-08-19T00:16:48;34.83;;;24.77;;
17987;SDS011;9119;50.932;5.342;2022-08-19T00:19:16;39.70;;;26.47;;
17987;SDS011;9119;50.932;5.342;2022-08-19T00:21:42;43.40;;;27.60;;
17987;SDS011;9119;50.932;5.342;2022-08-19T00:24:08;40.80;;;26.33;;
17987;SDS011;9119;50.932;5.342;2022-08-19T00:26:35;44.70;;;29.93;;
17987;SDS011;9119;50.932;5.342;2022-08-19T00:29:02;47.27;;;31.53;;
17987;SDS011;9119;50.932;5.342;2022-08-19T00:31:29;43.23;;;28.17;;
17987;SDS011;9119;50.932;5.342;2022-08-19T00:33:56;42.83;;;29.60;;
17987;SDS011;9119;50.932;5.342;2022-08-19T00:36:22;41.57;;;29.13;;
17987;SDS011;9119;50.932;5.342;2022-08-19T00:38:47;43.03;;;27.67;;
17987;SDS011;9119;50.932;5.342;2022-08-19T00:41:15;41.63;;;27.53;;
17987;SDS011;9119;50.932;5.342;2022-08-19T00:43:43;43.00;;;27.57;;
17987;SDS011;9119;50.932;5.342;2022-08-19T00:46:08;39.47;;;26.33;;
17987;SDS011;9119;50.932;5.342;2022-08-19T00:48:34;33.17;;;25.17;;
17987;SDS011;9119;50.932;5.342;2022-08-19T00:51:01;38.73;;;25.27;;
17987;SDS011;9119;50.932;5.342;2022-08-19T00:53:29;36.87;;;24.43;;
17987;SDS011;9119;50.932;5.342;2022-08-19T00:55:58;35.70;;;24.57;;
17987;SDS011;9119;50.932;5.342;2022-08-19T00:58:27;39.87;;;25.07;;
17987;SDS011;9119;50.932;5.342;2022-08-19T01:00:57;33.80;;;24.47;;
17987;SDS011;9119;50.932;5.342;2022-08-19T01:03:23;43.47;;;25.30;;
17987;SDS011;9119;50.932;5.342;2022-08-19T01:05:49;37.03;;;25.67;;
17987;SDS011;9119;50.932;5.342;2022-08-19T01:08:17;41.83;;;24.90;;
17987;SDS011;9119;50.932;5.342;2022-08-19T01:10:48;36.87;;;25.10;;
17987;SDS011;9119;50.932;5.342;2022-08-19T01:13:17;41.00;;;25.83;;
17987;SDS011;9119;50.932;5.342;2022-08-19T01:15:58;37.53;;;25.63;;
17987;SDS011;9119;50.932;5.342;2022-08-19T01:18:28;41.43;;;27.30;;
17987;SDS011;9119;50.932;5.342;2022-08-19T01:20:55;44.23;;;26.43;;
17987;SDS011;9119;50.932;5.342;2022-08-19T01:23:23;40.13;;;26.90;;
17987;SDS011;9119;50.932;5.342;2022-08-19T01:26:07;40.93;;;26.77;;
17987;SDS011;9119;50.932;5.342;2022-08-19T01:28:48;39.83;;;26.40;;
17987;SDS011;9119;50.932;5.342;2022-08-19T01:31:17;39.80;;;26.23;;
17987;SDS011;9119;50.932;5.342;2022-08-19T01:33:47;42.40;;;28.87;;
17987;SDS011;9119;50.932;5.342;2022-08-19T01:36:16;43.70;;;26.97;;
17987;SDS011;9119;50.932;5.342;2022-08-19T01:38:53;40.63;;;27.53;;
17987;SDS011;9119;50.932;5.342;2022-08-19T01:41:19;49.53;;;29.53;;
17987;SDS011;9119;50.932;5.342;2022-08-19T01:43:45;44.00;;;28.03;;
17987;SDS011;9119;50.932;5.342;2022-08-19T01:46:11;44.13;;;29.37;;
17987;SDS011;9119;50.932;5.342;2022-08-19T01:48:38;45.57;;;30.03;;
17987;SDS011;9119;50.932;5.342;2022-08-19T01:51:06;49.17;;;29.97;;
17987;SDS011;9119;50.932;5.342;2022-08-19T01:53:33;45.87;;;28.63;;
17987;SDS011;9119;50.932;5.342;2022-08-19T01:55:59;49.70;;;30.10;;
17987;SDS011;9119;50.932;5.342;2022-08-19T01:58:44;47.73;;;29.73;;
17987;SDS011;9119;50.932;5.342;2022-08-19T02:01:18;49.30;;;31.47;;
17987;SDS011;9119;50.932;5.342;2022-08-19T02:03:44;50.53;;;30.50;;
17987;SDS011;9119;50.932;5.342;2022-08-19T02:06:10;51.20;;;31.27;;
17987;SDS011;9119;50.932;5.342;2022-08-19T02:08:37;51.07;;;31.27;;
17987;SDS011;9119;50.932;5.342;2022-08-19T02:11:04;54.27;;;31.70;;
17987;SDS011;9119;50.932;5.342;2022-08-19T02:13:30;51.33;;;30.27;;
17987;SDS011;9119;50.932;5.342;2022-08-19T02:15:56;56.97;;;33.00;;
17987;SDS011;9119;50.932;5.342;2022-08-19T02:18:23;53.23;;;32.53;;
17987;SDS011;9119;50.932;5.342;2022-08-19T02:20:48;55.00;;;31.20;;
17987;SDS011;9119;50.932;5.342;2022-08-19T02:23:15;52.77;;;30.73;;
17987;SDS011;9119;50.932;5.342;2022-08-19T02:25:41;52.43;;;30.27;;
17987;SDS011;9119;50.932;5.342;2022-08-19T02:28:11;45.57;;;30.67;;
17987;SDS011;9119;50.932;5.342;2022-08-19T02:30:37;49.63;;;31.13;;
17987;SDS011;9119;50.932;5.342;2022-08-19T02:33:05;51.63;;;30.70;;
17987;SDS011;9119;50.932;5.342;2022-08-19T02:35:30;56.90;;;32.70;;
17987;SDS011;9119;50.932;5.342;2022-08-19T02:37:56;50.40;;;31.37;;
17987;SDS011;9119;50.932;5.342;2022-08-19T02:40:41;51.87;;;30.80;;
17987;SDS011;9119;50.932;5.342;2022-08-19T02:43:15;54.70;;;31.33;;
17987;SDS011;9119;50.932;5.342;2022-08-19T02:45:41;56.10;;;32.57;;
17987;SDS011;9119;50.932;5.342;2022-08-19T02:48:07;59.23;;;33.17;;
17987;SDS011;9119;50.932;5.342;2022-08-19T02:50:37;57.90;;;34.20;;
17987;SDS011;9119;50.932;5.342;2022-08-19T02:53:04;58.13;;;35.67;;
17987;SDS011;9119;50.932;5.342;2022-08-19T02:55:30;66.13;;;36.67;;
17987;SDS011;9119;50.932;5.342;2022-08-19T02:57:56;66.63;;;35.93;;
17987;SDS011;9119;50.932;5.342;2022-08-19T03:00:22;64.80;;;35.87;;
17987;SDS011;9119;50.932;5.342;2022-08-19T03:02:49;69.67;;;37.17;;
17987;SDS011;9119;50.932;5.342;2022-08-19T03:05:14;68.33;;;37.10;;
17987;SDS011;9119;50.932;5.342;2022-08-19T03:07:40;70.20;;;37.27;;
17987;SDS011;9119;50.932;5.342;2022-08-19T03:10:06;77.30;;;38.80;;
17987;SDS011;9119;50.932;5.342;2022-08-19T03:12:35;72.70;;;39.83;;
17987;SDS011;9119;50.932;5.342;2022-08-19T03:15:02;72.93;;;38.57;;
17987;SDS011;9119;50.932;5.342;2022-08-19T03:17:30;78.60;;;40.70;;
17987;SDS011;9119;50.932;5.342;2022-08-19T03:19:55;76.00;;;40.00;;
17987;SDS011;9119;50.932;5.342;2022-08-19T03:22:21;81.60;;;40.23;;
17987;SDS011;9119;50.932;5.342;2022-08-19T03:24:47;90.00;;;42.07;;
17987;SDS011;9119;50.932;5.342;2022-08-19T03:27:12;76.33;;;41.47;;
17987;SDS011;9119;50.932;5.342;2022-08-19T03:29:39;78.47;;;39.37;;
17987;SDS011;9119;50.932;5.342;2022-08-19T03:32:05;84.37;;;41.37;;
17987;SDS011;9119;50.932;5.342;2022-08-19T03:34:32;87.47;;;40.70;;
17987;SDS011;9119;50.932;5.342;2022-08-19T03:37:03;78.70;;;40.57;;
17987;SDS011;9119;50.932;5.342;2022-08-19T03:39:31;79.83;;;41.00;;
17987;SDS011;9119;50.932;5.342;2022-08-19T03:41:56;83.03;;;41.67;;
17987;SDS011;9119;50.932;5.342;2022-08-19T03:44:24;75.90;;;39.27;;
17987;SDS011;9119;50.932;5.342;2022-08-19T03:46:57;75.53;;;39.70;;
17987;SDS011;9119;50.932;5.342;2022-08-19T03:49:25;74.47;;;38.63;;
17987;SDS011;9119;50.932;5.342;2022-08-19T03:51:54;79.03;;;41.30;;
17987;SDS011;9119;50.932;5.342;2022-08-19T03:54:22;77.90;;;40.90;;
17987;SDS011;9119;50.932;5.342;2022-08-19T03:56:50;75.47;;;41.00;;
17987;SDS011;9119;50.932;5.342;2022-08-19T03:59:19;80.93;;;41.80;;
17987;SDS011;9119;50.932;5.342;2022-08-19T04:01:48;81.83;;;40.07;;
17987;SDS011;9119;50.932;5.342;2022-08-19T04:04:13;82.50;;;41.20;;
17987;SDS011;9119;50.932;5.342;2022-08-19T04:06:39;80.93;;;41.33;;
17987;SDS011;9119;50.932;5.342;2022-08-19T04:09:07;85.73;;;42.27;;
17987;SDS011;9119;50.932;5.342;2022-08-19T04:11:36;85.60;;;41.43;;
17987;SDS011;9119;50.932;5.342;2022-08-19T04:14:07;83.90;;;42.40;;
17987;SDS011;9119;50.932;5.342;2022-08-19T04:16:34;82.73;;;43.47;;
17987;SDS011;9119;50.932;5.342;2022-08-19T04:19:00;81.73;;;41.30;;
17987;SDS011;9119;50.932;5.342;2022-08-19T04:21:27;84.03;;;43.27;;
17987;SDS011;9119;50.932;5.342;2022-08-19T04:23:54;92.90;;;43.27;;
17987;SDS011;9119;50.932;5.342;2022-08-19T04:26:22;81.40;;;42.23;;
17987;SDS011;9119;50.932;5.342;2022-08-19T04:28:52;83.87;;;40.90;;
17987;SDS011;9119;50.932;5.342;2022-08-19T04:31:20;88.97;;;42.67;;
17987;SDS011;9119;50.932;5.342;2022-08-19T04:33:47;85.87;;;43.27;;
17987;SDS011;9119;50.932;5.342;2022-08-19T04:36:17;85.67;;;43.37;;
17987;SDS011;9119;50.932;5.342;2022-08-19T04:38:45;90.77;;;43.40;;
17987;SDS011;9119;50.932;5.342;2022-08-19T04:41:12;91.13;;;42.93;;
17987;SDS011;9119;50.932;5.342;2022-08-19T04:43:56;90.53;;;43.17;;
17987;SDS011;9119;50.932;5.342;2022-08-19T04:46:22;85.37;;;42.63;;
17987;SDS011;9119;50.932;5.342;2022-08-19T04:48:47;82.20;;;40.97;;
17987;SDS011;9119;50.932;5.342;2022-08-19T04:51:13;84.30;;;42.17;;
17987;SDS011;9119;50.932;5.342;2022-08-19T04:53:40;82.50;;;40.90;;
17987;SDS011;9119;50.932;5.342;2022-08-19T04:56:11;83.40;;;41.17;;
17987;SDS011;9119;50.932;5.342;2022-08-19T04:58:39;85.27;;;41.77;;
17987;SDS011;9119;50.932;5.342;2022-08-19T05:01:07;84.90;;;41.93;;
17987;SDS011;9119;50.932;5.342;2022-08-19T05:03:37;89.40;;;43.57;;
17987;SDS011;9119;50.932;5.342;2022-08-19T05:06:05;85.17;;;40.80;;
17987;SDS011;9119;50.932;5.342;2022-08-19T05:08:33;82.53;;;41.30;;
17987;SDS011;9119;50.932;5.342;2022-08-19T05:11:00;93.23;;;42.77;;
17987;SDS011;9119;50.932;5.342;2022-08-19T05:13:26;88.57;;;41.60;;
17987;SDS011;9119;50.932;5.342;2022-08-19T05:15:58;82.67;;;40.20;;
17987;SDS011;9119;50.932;5.342;2022-08-19T05:18:24;87.37;;;43.53;;
17987;SDS011;9119;50.932;5.342;2022-08-19T05:21:12;93.80;;;43.23;;
17987;SDS011;9119;50.932;5.342;2022-08-19T05:24:03;96.70;;;44.10;;
17987;SDS011;9119;50.932;5.342;2022-08-19T05:26:37;96.20;;;43.77;;
17987;SDS011;9119;50.932;5.342;2022-08-19T05:29:04;94.97;;;43.80;;
17987;SDS011;9119;50.932;5.342;2022-08-19T05:31:32;94.07;;;42.73;;
17987;SDS011;9119;50.932;5.342;2022-08-19T05:33:58;91.27;;;43.33;;
17987;SDS011;9119;50.932;5.342;2022-08-19T05:36:25;90.47;;;43.63;;
17987;SDS011;9119;50.932;5.342;2022-08-19T05:38:51;90.60;;;43.27;;
17987;SDS011;9119;50.932;5.342;2022-08-19T05:41:18;85.97;;;43.17;;
17987;SDS011;9119;50.932;5.342;2022-08-19T05:43:46;86.67;;;42.87;;
17987;SDS011;9119;50.932;5.342;2022-08-19T05:46:18;91.10;;;42.47;;
17987;SDS011;9119;50.932;5.342;2022-08-19T05:48:44;80.63;;;40.63;;
17987;SDS011;9119;50.932;5.342;2022-08-19T05:51:10;84.03;;;42.43;;
17987;SDS011;9119;50.932;5.342;2022-08-19T05:53:36;79.57;;;41.30;;
17987;SDS011;9119;50.932;5.342;2022-08-19T05:56:10;77.10;;;39.93;;
17987;SDS011;9119;50.932;5.342;2022-08-19T05:58:37;74.87;;;39.53;;
17987;SDS011;9119;50.932;5.342;2022-08-19T06:01:04;87.80;;;40.37;;
17987;SDS011;9119;50.932;5.342;2022-08-19T06:03:35;77.63;;;40.23;;
17987;SDS011;9119;50.932;5.342;2022-08-19T06:06:03;75.70;;;38.40;;
17987;SDS011;9119;50.932;5.342;2022-08-19T06:08:30;71.80;;;37.67;;
17987;SDS011;9119;50.932;5.342;2022-08-19T06:10:56;73.93;;;38.13;;
17987;SDS011;9119;50.932;5.342;2022-08-19T06:13:22;65.73;;;34.93;;
17987;SDS011;9119;50.932;5.342;2022-08-19T06:15:49;69.53;;;34.80;;
17987;SDS011;9119;50.932;5.342;2022-08-19T06:18:14;61.80;;;33.30;;
17987;SDS011;9119;50.932;5.342;2022-08-19T06:20:40;67.23;;;33.63;;
17987;SDS011;9119;50.932;5.342;2022-08-19T06:23:07;69.23;;;33.67;;
17987;SDS011;9119;50.932;5.342;2022-08-19T06:25:34;63.43;;;33.13;;
17987;SDS011;9119;50.932;5.342;2022-08-19T06:28:01;90.97;;;32.47;;
17987;SDS011;9119;50.932;5.342;2022-08-19T06:30:28;65.47;;;33.17;;
17987;SDS011;9119;50.932;5.342;2022-08-19T06:32:53;62.33;;;31.43;;
17987;SDS011;9119;50.932;5.342;2022-08-19T06:35:19;55.53;;;31.43;;
17987;SDS011;9119;50.932;5.342;2022-08-19T06:37:45;61.03;;;31.60;;
17987;SDS011;9119;50.932;5.342;2022-08-19T06:40:11;56.93;;;29.43;;
17987;SDS011;9119;50.932;5.342;2022-08-19T06:42:37;57.80;;;29.60;;
17987;SDS011;9119;50.932;5.342;2022-08-19T06:45:03;57.73;;;29.37;;
17987;SDS011;9119;50.932;5.342;2022-08-19T06:47:30;57.30;;;27.73;;
17987;SDS011;9119;50.932;5.342;2022-08-19T06:49:57;66.20;;;28.67;;
17987;SDS011;9119;50.932;5.342;2022-08-19T06:52:27;52.10;;;27.10;;
17987;SDS011;9119;50.932;5.342;2022-08-19T06:54:53;55.30;;;26.77;;
17987;SDS011;9119;50.932;5.342;2022-08-19T06:57:20;54.33;;;25.33;;
17987;SDS011;9119;50.932;5.342;2022-08-19T06:59:46;47.77;;;25.90;;
17987;SDS011;9119;50.932;5.342;2022-08-19T07:02:11;49.93;;;25.30;;
17987;SDS011;9119;50.932;5.342;2022-08-19T07:04:37;76.00;;;23.87;;
17987;SDS011;9119;50.932;5.342;2022-08-19T07:07:08;55.30;;;24.53;;
17987;SDS011;9119;50.932;5.342;2022-08-19T07:09:37;72.77;;;25.50;;
17987;SDS011;9119;50.932;5.342;2022-08-19T07:12:06;55.50;;;23.83;;
17987;SDS011;9119;50.932;5.342;2022-08-19T07:14:34;47.60;;;23.67;;
17987;SDS011;9119;50.932;5.342;2022-08-19T07:17:04;41.17;;;21.23;;
17987;SDS011;9119;50.932;5.342;2022-08-19T07:19:32;44.93;;;21.97;;
17987;SDS011;9119;50.932;5.342;2022-08-19T07:21:58;52.67;;;21.70;;
17987;SDS011;9119;50.932;5.342;2022-08-19T07:24:27;53.47;;;19.87;;
17987;SDS011;9119;50.932;5.342;2022-08-19T07:26:54;40.83;;;20.23;;
17987;SDS011;9119;50.932;5.342;2022-08-19T07:29:22;37.37;;;19.63;;
17987;SDS011;9119;50.932;5.342;2022-08-19T07:31:51;37.47;;;20.00;;
17987;SDS011;9119;50.932;5.342;2022-08-19T07:34:21;38.47;;;19.43;;
17987;SDS011;9119;50.932;5.342;2022-08-19T07:36:47;33.70;;;18.20;;
17987;SDS011;9119;50.932;5.342;2022-08-19T07:39:14;35.40;;;17.97;;
17987;SDS011;9119;50.932;5.342;2022-08-19T07:41:45;46.67;;;17.87;;
17987;SDS011;9119;50.932;5.342;2022-08-19T07:44:11;47.70;;;19.30;;
17987;SDS011;9119;50.932;5.342;2022-08-19T07:46:38;36.60;;;19.00;;
17987;SDS011;9119;50.932;5.342;2022-08-19T07:49:06;42.60;;;19.23;;
17987;SDS011;9119;50.932;5.342;2022-08-19T07:51:34;59.57;;;20.57;;
17987;SDS011;9119;50.932;5.342;2022-08-19T07:54:00;42.83;;;19.63;;
17987;SDS011;9119;50.932;5.342;2022-08-19T07:56:26;50.13;;;19.77;;
17987;SDS011;9119;50.932;5.342;2022-08-19T07:58:51;45.93;;;20.33;;
17987;SDS011;9119;50.932;5.342;2022-08-19T08:01:19;37.37;;;20.00;;
17987;SDS011;9119;50.932;5.342;2022-08-19T08:03:51;39.10;;;18.87;;
17987;SDS011;9119;50.932;5.342;2022-08-19T08:06:36;40.60;;;18.87;;
17987;SDS011;9119;50.932;5.342;2022-08-19T08:09:26;37.60;;;17.50;;
17987;SDS011;9119;50.932;5.342;2022-08-19T08:11:58;60.67;;;17.30;;
17987;SDS011;9119;50.932;5.342;2022-08-19T08:14:33;31.40;;;17.60;;
17987;SDS011;9119;50.932;5.342;2022-08-19T08:17:01;30.00;;;17.63;;
17987;SDS011;9119;50.932;5.342;2022-08-19T08:19:28;34.17;;;18.47;;
17987;SDS011;9119;50.932;5.342;2022-08-19T08:21:55;33.33;;;17.20;;
17987;SDS011;9119;50.932;5.342;2022-08-19T08:24:22;35.30;;;16.83;;
17987;SDS011;9119;50.932;5.342;2022-08-19T08:26:49;26.07;;;16.37;;
17987;SDS011;9119;50.932;5.342;2022-08-19T08:29:15;33.77;;;18.30;;
17987;SDS011;9119;50.932;5.342;2022-08-19T08:31:41;30.90;;;15.67;;
17987;SDS011;9119;50.932;5.342;2022-08-19T08:34:09;28.07;;;15.27;;
17987;SDS011;9119;50.932;5.342;2022-08-19T08:36:37;30.83;;;14.60;;
17987;SDS011;9119;50.932;5.342;2022-08-19T08:39:07;30.43;;;14.50;;
17987;SDS011;9119;50.932;5.342;2022-08-19T08:47:03;34.83;;;14.40;;
17987;SDS011;9119;50.932;5.342;2022-08-19T08:49:56;27.67;;;13.53;;
17987;SDS011;9119;50.932;5.342;2022-08-19T08:52:43;33.37;;;15.03;;
17987;SDS011;9119;50.932;5.342;2022-08-19T08:55:17;22.63;;;13.67;;
17987;SDS011;9119;50.932;5.342;2022-08-19T09:02:55;17.80;;;11.10;;
17987;SDS011;9119;50.932;5.342;2022-08-19T09:05:22;25.83;;;10.63;;
17987;SDS011;9119;50.932;5.342;2022-08-19T09:08:07;24.93;;;10.67;;
17987;SDS011;9119;50.932;5.342;2022-08-19T09:10:39;20.80;;;10.87;;
17987;SDS011;9119;50.932;5.342;2022-08-19T09:16:06;19.70;;;10.57;;
17987;SDS011;9119;50.932;5.342;2022-08-19T09:18:41;18.90;;;11.83;;
17987;SDS011;9119;50.932;5.342;2022-08-19T09:21:12;19.07;;;10.63;;
17987;SDS011;9119;50.932;5.342;2022-08-19T09:23:39;15.67;;;8.90;;
17987;SDS011;9119;50.932;5.342;2022-08-19T09:26:11;17.07;;;9.90;;
17987;SDS011;9119;50.932;5.342;2022-08-19T09:28:40;19.53;;;11.30;;
17987;SDS011;9119;50.932;5.342;2022-08-19T09:31:30;20.80;;;11.80;;
17987;SDS011;9119;50.932;5.342;2022-08-19T09:33:55;21.50;;;11.47;;
17987;SDS011;9119;50.932;5.342;2022-08-19T09:36:22;16.80;;;9.27;;
17987;SDS011;9119;50.932;5.342;2022-08-19T09:38:50;16.63;;;9.03;;
17987;SDS011;9119;50.932;5.342;2022-08-19T09:41:18;21.43;;;8.33;;
17987;SDS011;9119;50.932;5.342;2022-08-19T09:43:46;29.33;;;7.43;;
17987;SDS011;9119;50.932;5.342;2022-08-19T09:46:13;19.30;;;7.97;;
17987;SDS011;9119;50.932;5.342;2022-08-19T09:48:40;12.70;;;6.80;;
17987;SDS011;9119;50.932;5.342;2022-08-19T09:51:08;15.83;;;6.87;;
17987;SDS011;9119;50.932;5.342;2022-08-19T09:53:36;12.27;;;6.83;;
17987;SDS011;9119;50.932;5.342;2022-08-19T09:56:03;14.37;;;7.33;;
17987;SDS011;9119;50.932;5.342;2022-08-19T09:58:32;13.30;;;6.20;;
17987;SDS011;9119;50.932;5.342;2022-08-19T10:00:58;13.43;;;6.17;;
17987;SDS011;9119;50.932;5.342;2022-08-19T10:03:25;13.53;;;5.73;;
17987;SDS011;9119;50.932;5.342;2022-08-19T10:05:53;12.30;;;5.47;;
17987;SDS011;9119;50.932;5.342;2022-08-19T10:08:20;11.67;;;5.93;;
17987;SDS011;9119;50.932;5.342;2022-08-19T10:10:48;11.33;;;4.60;;
17987;SDS011;9119;50.932;5.342;2022-08-19T10:13:17;8.23;;;4.30;;
17987;SDS011;9119;50.932;5.342;2022-08-19T10:15:51;13.43;;;4.47;;
17987;SDS011;9119;50.932;5.342;2022-08-19T10:18:19;8.50;;;4.70;;
17987;SDS011;9119;50.932;5.342;2022-08-19T10:20:49;9.80;;;4.80;;
17987;SDS011;9119;50.932;5.342;2022-08-19T10:23:16;8.93;;;4.50;;
17987;SDS011;9119;50.932;5.342;2022-08-19T10:25:43;12.80;;;5.30;;
17987;SDS011;9119;50.932;5.342;2022-08-19T10:28:09;12.93;;;4.90;;
17987;SDS011;9119;50.932;5.342;2022-08-19T10:30:37;10.63;;;4.50;;
17987;SDS011;9119;50.932;5.342;2022-08-19T10:33:05;10.90;;;4.67;;
17987;SDS011;9119;50.932;5.342;2022-08-19T10:35:31;10.77;;;5.23;;
17987;SDS011;9119;50.932;5.342;2022-08-19T10:37:58;9.87;;;5.10;;
17987;SDS011;9119;50.932;5.342;2022-08-19T10:40:26;12.17;;;5.10;;
17987;SDS011;9119;50.932;5.342;2022-08-19T10:42:53;15.40;;;5.17;;
17987;SDS011;9119;50.932;5.342;2022-08-19T10:45:20;12.03;;;5.50;;
17987;SDS011;9119;50.932;5.342;2022-08-19T10:47:52;26.57;;;5.90;;
17987;SDS011;9119;50.932;5.342;2022-08-19T10:50:19;9.90;;;4.70;;
17987;SDS011;9119;50.932;5.342;2022-08-19T10:53:04;7.33;;;4.77;;
17987;SDS011;9119;50.932;5.342;2022-08-19T10:55:35;7.33;;;4.70;;
17987;SDS011;9119;50.932;5.342;2022-08-19T10:58:19;8.97;;;4.50;;
17987;SDS011;9119;50.932;5.342;2022-08-19T11:00:54;13.33;;;5.30;;
17987;SDS011;9119;50.932;5.342;2022-08-19T11:03:21;12.47;;;4.57;;
17987;SDS011;9119;50.932;5.342;2022-08-19T11:05:56;15.20;;;5.23;;
17987;SDS011;9119;50.932;5.342;2022-08-19T11:08:26;8.47;;;4.50;;
17987;SDS011;9119;50.932;5.342;2022-08-19T11:10:53;14.20;;;4.77;;
17987;SDS011;9119;50.932;5.342;2022-08-19T11:13:25;12.30;;;4.50;;
17987;SDS011;9119;50.932;5.342;2022-08-19T11:16:00;8.53;;;4.37;;
17987;SDS011;9119;50.932;5.342;2022-08-19T11:18:29;18.73;;;5.60;;
17987;SDS011;9119;50.932;5.342;2022-08-19T11:21:04;11.47;;;5.20;;
17987;SDS011;9119;50.932;5.342;2022-08-19T11:23:31;7.53;;;4.40;;
17987;SDS011;9119;50.932;5.342;2022-08-19T11:25:57;9.30;;;4.70;;
17987;SDS011;9119;50.932;5.342;2022-08-19T11:28:24;9.77;;;4.90;;
17987;SDS011;9119;50.932;5.342;2022-08-19T11:30:50;7.73;;;4.93;;
17987;SDS011;9119;50.932;5.342;2022-08-19T11:33:15;9.37;;;5.00;;
17987;SDS011;9119;50.932;5.342;2022-08-19T11:35:41;8.33;;;4.97;;
17987;SDS011;9119;50.932;5.342;2022-08-19T11:38:07;9.73;;;4.27;;
17987;SDS011;9119;50.932;5.342;2022-08-19T11:40:32;7.07;;;4.63;;
17987;SDS011;9119;50.932;5.342;2022-08-19T11:42:58;7.03;;;3.97;;
17987;SDS011;9119;50.932;5.342;2022-08-19T11:45:24;11.40;;;4.70;;
17987;SDS011;9119;50.932;5.342;2022-08-19T11:47:52;10.60;;;5.43;;
17987;SDS011;9119;50.932;5.342;2022-08-19T11:50:19;13.10;;;5.33;;
17987;SDS011;9119;50.932;5.342;2022-08-19T11:52:45;12.63;;;4.40;;
17987;SDS011;9119;50.932;5.342;2022-08-19T11:55:12;9.20;;;4.83;;
17987;SDS011;9119;50.932;5.342;2022-08-19T11:57:38;7.60;;;4.33;;
17987;SDS011;9119;50.932;5.342;2022-08-19T12:00:06;12.17;;;4.60;;
17987;SDS011;9119;50.932;5.342;2022-08-19T12:02:32;11.77;;;4.47;;
17987;SDS011;9119;50.932;5.342;2022-08-19T12:04:58;10.00;;;4.80;;
17987;SDS011;9119;50.932;5.342;2022-08-19T12:07:27;9.27;;;4.10;;
17987;SDS011;9119;50.932;5.342;2022-08-19T12:09:58;10.73;;;4.00;;
17987;SDS011;9119;50.932;5.342;2022-08-19T12:12:24;10.37;;;4.00;;
17987;SDS011;9119;50.932;5.342;2022-08-19T12:14:51;7.63;;;4.33;;
17987;SDS011;9119;50.932;5.342;2022-08-19T12:17:25;7.07;;;4.60;;
17987;SDS011;9119;50.932;5.342;2022-08-19T12:19:51;7.83;;;4.43;;
17987;SDS011;9119;50.932;5.342;2022-08-19T12:22:17;7.27;;;5.00;;
17987;SDS011;9119;50.932;5.342;2022-08-19T12:24:43;7.27;;;4.43;;
17987;SDS011;9119;50.932;5.342;2022-08-19T12:27:09;15.37;;;4.90;;
17987;SDS011;9119;50.932;5.342;2022-08-19T12:29:34;7.60;;;4.50;;
17987;SDS011;9119;50.932;5.342;2022-08-19T12:32:00;11.17;;;4.83;;
17987;SDS011;9119;50.932;5.342;2022-08-19T12:34:30;6.30;;;4.60;;
17987;SDS011;9119;50.932;5.342;2022-08-19T12:36:58;10.10;;;4.93;;
17987;SDS011;9119;50.932;5.342;2022-08-19T12:39:26;8.13;;;4.67;;
17987;SDS011;9119;50.932;5.342;2022-08-19T12:41:52;9.70;;;5.70;;
17987;SDS011;9119;50.932;5.342;2022-08-19T12:44:18;12.03;;;4.90;;
17987;SDS011;9119;50.932;5.342;2022-08-19T12:46:43;9.93;;;4.60;;
17987;SDS011;9119;50.932;5.342;2022-08-19T12:49:09;6.73;;;4.47;;
17987;SDS011;9119;50.932;5.342;2022-08-19T12:51:35;6.53;;;4.20;;
17987;SDS011;9119;50.932;5.342;2022-08-19T12:54:01;5.47;;;3.50;;
17987;SDS011;9119;50.932;5.342;2022-08-19T12:56:26;8.73;;;4.10;;
17987;SDS011;9119;50.932;5.342;2022-08-19T12:58:52;8.87;;;4.20;;
17987;SDS011;9119;50.932;5.342;2022-08-19T13:01:18;7.83;;;3.80;;
17987;SDS011;9119;50.932;5.342;2022-08-19T13:03:44;9.07;;;4.20;;
17987;SDS011;9119;50.932;5.342;2022-08-19T13:06:11;10.50;;;4.43;;
17987;SDS011;9119;50.932;5.342;2022-08-19T13:08:37;12.97;;;4.60;;
17987;SDS011;9119;50.932;5.342;2022-08-19T13:11:16;8.90;;;4.40;;
17987;SDS011;9119;50.932;5.342;2022-08-19T13:13:48;5.70;;;4.17;;
17987;SDS011;9119;50.932;5.342;2022-08-19T13:16:15;9.30;;;4.10;;
17987;SDS011;9119;50.932;5.342;2022-08-19T13:18:42;7.00;;;4.43;;
17987;SDS011;9119;50.932;5.342;2022-08-19T13:21:09;10.27;;;4.70;;
17987;SDS011;9119;50.932;5.342;2022-08-19T13:23:39;7.23;;;3.83;;
17987;SDS011;9119;50.932;5.342;2022-08-19T13:26:06;8.90;;;3.53;;
17987;SDS011;9119;50.932;5.342;2022-08-19T13:28:33;7.03;;;3.50;;
17987;SDS011;9119;50.932;5.342;2022-08-19T13:31:18;9.73;;;3.87;;
17987;SDS011;9119;50.932;5.342;2022-08-19T13:34:05;10.63;;;3.43;;
17987;SDS011;9119;50.932;5.342;2022-08-19T13:36:35;5.30;;;3.63;;
17987;SDS011;9119;50.932;5.342;2022-08-19T13:39:02;6.13;;;2.87;;
17987;SDS011;9119;50.932;5.342;2022-08-19T13:41:28;4.20;;;2.90;;
17987;SDS011;9119;50.932;5.342;2022-08-19T13:43:54;8.10;;;3.30;;
17987;SDS011;9119;50.932;5.342;2022-08-19T13:46:20;9.50;;;3.20;;
17987;SDS011;9119;50.932;5.342;2022-08-19T13:48:46;4.87;;;2.90;;
17987;SDS011;9119;50.932;5.342;2022-08-19T13:51:15;6.90;;;3.03;;
17987;SDS011;9119;50.932;5.342;2022-08-19T13:53:42;4.47;;;2.60;;
17987;SDS011;9119;50.932;5.342;2022-08-19T13:56:10;8.07;;;2.93;;
17987;SDS011;9119;50.932;5.342;2022-08-19T13:58:39;5.13;;;2.53;;
17987;SDS011;9119;50.932;5.342;2022-08-19T14:01:05;5.70;;;2.70;;
17987;SDS011;9119;50.932;5.342;2022-08-19T14:03:32;5.00;;;2.80;;
17987;SDS011;9119;50.932;5.342;2022-08-19T14:05:59;5.00;;;2.47;;
17987;SDS011;9119;50.932;5.342;2022-08-19T14:08:25;4.50;;;2.60;;
17987;SDS011;9119;50.932;5.342;2022-08-19T14:10:52;3.93;;;2.60;;
17987;SDS011;9119;50.932;5.342;2022-08-19T14:13:22;12.83;;;3.30;;
17987;SDS011;9119;50.932;5.342;2022-08-19T14:15:48;5.63;;;2.93;;
17987;SDS011;9119;50.932;5.342;2022-08-19T14:18:15;6.00;;;3.37;;
17987;SDS011;9119;50.932;5.342;2022-08-19T14:20:42;8.63;;;3.13;;
17987;SDS011;9119;50.932;5.342;2022-08-19T14:23:09;16.60;;;3.40;;
17987;SDS011;9119;50.932;5.342;2022-08-19T14:25:35;18.17;;;3.50;;
17987;SDS011;9119;50.932;5.342;2022-08-19T14:28:01;6.37;;;3.00;;
17987;SDS011;9119;50.932;5.342;2022-08-19T14:30:28;4.73;;;2.83;;
17987;SDS011;9119;50.932;5.342;2022-08-19T14:32:57;3.83;;;2.67;;
17987;SDS011;9119;50.932;5.342;2022-08-19T14:35:24;5.53;;;3.30;;
17987;SDS011;9119;50.932;5.342;2022-08-19T14:37:51;4.37;;;3.13;;
17987;SDS011;9119;50.932;5.342;2022-08-19T14:40:21;8.30;;;3.50;;
17987;SDS011;9119;50.932;5.342;2022-08-19T14:43:02;5.17;;;3.40;;
17987;SDS011;9119;50.932;5.342;2022-08-19T14:45:32;3.40;;;2.80;;
17987;SDS011;9119;50.932;5.342;2022-08-19T14:48:00;5.30;;;3.77;;
17987;SDS011;9119;50.932;5.342;2022-08-19T14:50:26;6.77;;;3.37;;
17987;SDS011;9119;50.932;5.342;2022-08-19T14:52:57;9.67;;;3.77;;
17987;SDS011;9119;50.932;5.342;2022-08-19T14:55:28;8.50;;;3.50;;
17987;SDS011;9119;50.932;5.342;2022-08-19T14:57:55;7.83;;;3.20;;
17987;SDS011;9119;50.932;5.342;2022-08-19T15:00:20;6.10;;;3.23;;
17987;SDS011;9119;50.932;5.342;2022-08-19T15:02:48;8.13;;;3.23;;
17987;SDS011;9119;50.932;5.342;2022-08-19T15:05:14;10.77;;;3.47;;